Time;durP1;ratioP1;P1;durP2;ratioP2;P2;SDS_P1;SDS_P2;PMS_P1;PMS_P2;Temp;Humidity;BMP_temperature;BMP_pressure;BME280_temperature;BME280_humidity;BME280_pressure;Samples;Min_cycle;Max_cycle;Signal;HPM_P1;HPM_P2
2024/04/24 00:00:20;;;;;;;2.13;1.17;;;8.00;98.30;;;;;;5319323;26;19993;-82
2024/04/24 00:02:45;;;;;;;3.05;0.85;;;8.00;98.30;;;;;;5285468;26;20000;-82
2024/04/24 00:05:11;;;;;;;1.15;0.65;;;8.10;98.30;;;;;;5384860;26;20000;-82
2024/04/24 00:07:40;;;;;;;2.42;0.70;;;8.10;98.40;;;;;;5353427;26;19996;-82
2024/04/24 00:10:06;;;;;;;1.23;0.80;;;8.00;98.30;;;;;;5346346;26;20011;-82
2024/04/24 00:12:31;;;;;;;2.72;0.93;;;8.00;98.40;;;;;;5300447;26;20325;-82
2024/04/24 00:14:57;;;;;;;3.45;1.00;;;8.00;98.40;;;;;;5318990;26;20025;-82
2024/04/24 00:17:22;;;;;;;2.70;0.90;;;8.00;98.50;;;;;;5294785;26;20008;-82
2024/04/24 00:19:48;;;;;;;1.65;0.82;;;8.00;98.50;;;;;;5346526;26;19997;-82
2024/04/24 00:22:13;;;;;;;3.03;0.80;;;8.00;98.50;;;;;;5319527;26;19997;-82
2024/04/24 00:24:39;;;;;;;1.92;0.68;;;8.00;98.50;;;;;;5355733;26;19997;-82
2024/04/24 00:27:05;;;;;;;4.22;0.85;;;7.90;98.50;;;;;;5349140;26;20000;-82
2024/04/24 00:29:30;;;;;;;2.72;0.82;;;7.90;98.60;;;;;;5353308;26;20440;-82
2024/04/24 00:32:00;;;;;;;3.42;0.98;;;7.90;98.60;;;;;;5352792;26;20080;-83
2024/04/24 00:34:28;;;;;;;3.47;1.10;;;7.90;98.60;;;;;;5383855;26;19992;-82
2024/04/24 00:36:54;;;;;;;1.95;0.80;;;7.90;98.60;;;;;;5345055;26;20000;-82
2024/04/24 00:39:20;;;;;;;4.68;1.38;;;7.90;98.70;;;;;;5329796;26;20387;-82
2024/04/24 00:41:46;;;;;;;4.72;1.15;;;7.80;98.60;;;;;;5335719;26;20003;-82
2024/04/24 00:44:11;;;;;;;2.95;0.80;;;7.90;98.60;;;;;;5368677;26;19993;-82
2024/04/24 00:46:37;;;;;;;2.58;0.75;;;7.90;98.60;;;;;;5299245;26;20000;-82
2024/04/24 00:49:03;;;;;;;1.75;0.88;;;7.90;98.60;;;;;;5313052;26;20010;-82
2024/04/24 00:51:30;;;;;;;2.00;0.73;;;7.90;98.60;;;;;;5316687;26;19996;-82
2024/04/24 00:53:55;;;;;;;2.08;0.90;;;7.80;98.60;;;;;;5324786;26;19992;-82
2024/04/24 00:56:21;;;;;;;2.83;0.68;;;7.80;98.60;;;;;;5352997;26;20018;-82
2024/04/24 00:58:47;;;;;;;3.88;1.00;;;7.90;98.70;;;;;;5384267;26;19996;-82
2024/04/24 01:01:14;;;;;;;3.83;1.00;;;7.80;98.60;;;;;;5294036;26;20005;-82
2024/04/24 01:03:40;;;;;;;2.60;0.75;;;7.80;98.60;;;;;;5268087;26;19997;-82
2024/04/24 01:06:06;;;;;;;2.53;0.93;;;7.80;98.60;;;;;;5319560;26;20012;-82
2024/04/24 01:08:32;;;;;;;2.90;1.02;;;7.80;98.60;;;;;;5371460;26;19989;-82
2024/04/24 01:10:58;;;;;;;3.53;0.90;;;7.80;98.50;;;;;;5386905;26;19992;-84
2024/04/24 01:13:25;;;;;;;3.35;1.08;;;7.70;98.50;;;;;;5344987;26;20004;-82
2024/04/24 01:16:03;;;;;;;5.15;1.23;;;7.80;98.60;;;;;;5405913;26;20010;-81
2024/04/24 01:18:31;;;;;;;4.32;1.27;;;7.80;98.60;;;;;;5386084;26;20005;-82
2024/04/24 01:20:58;;;;;;;3.13;1.20;;;7.70;98.60;;;;;;5364240;26;19996;-81
2024/04/24 01:23:39;;;;;;;2.97;0.82;;;7.70;98.60;;;;;;5348264;26;20074;-82
2024/04/24 01:26:26;;;;;;;6.85;1.85;;;7.70;98.60;;;;;;5384117;26;20038;-82
2024/04/24 01:28:52;;;;;;;1.80;0.95;;;7.70;98.70;;;;;;5377473;26;20486;-82
2024/04/24 01:31:18;;;;;;;2.30;1.02;;;7.70;98.60;;;;;;5292700;26;20016;-82
2024/04/24 01:33:44;;;;;;;2.25;1.02;;;7.70;98.60;;;;;;5321493;26;19992;-81
2024/04/24 01:36:09;;;;;;;2.03;0.70;;;7.70;98.60;;;;;;5287919;26;20076;-82
2024/04/24 01:38:35;;;;;;;3.60;1.48;;;7.70;98.60;;;;;;5323162;26;20001;-82
2024/04/24 01:41:00;;;;;;;2.92;1.13;;;7.70;98.60;;;;;;5352395;26;20008;-82
2024/04/24 01:43:26;;;;;;;4.30;1.25;;;7.70;98.60;;;;;;5316807;26;20012;-82
2024/04/24 01:45:51;;;;;;;1.83;0.82;;;7.80;98.60;;;;;;5305708;26;20036;-82
2024/04/24 01:48:20;;;;;;;2.67;0.85;;;7.80;98.50;;;;;;5351672;26;20014;-81
2024/04/24 01:50:45;;;;;;;2.88;0.88;;;7.70;98.50;;;;;;5294237;26;20071;-82
2024/04/24 01:53:11;;;;;;;4.30;1.08;;;7.70;98.40;;;;;;5315531;26;20012;-82
2024/04/24 01:55:37;;;;;;;3.47;0.98;;;7.70;98.50;;;;;;5372975;26;20001;-82
2024/04/24 01:58:02;;;;;;;1.33;0.47;;;7.70;98.50;;;;;;5321846;26;19992;-82
2024/04/24 02:00:28;;;;;;;2.42;0.77;;;7.60;98.40;;;;;;5317458;26;20001;-82
2024/04/24 02:02:54;;;;;;;3.63;1.30;;;7.60;98.40;;;;;;5325129;26;19993;-82
2024/04/24 02:05:22;;;;;;;2.25;0.73;;;7.70;98.50;;;;;;5346346;26;20001;-82
2024/04/24 02:07:47;;;;;;;3.72;1.05;;;7.60;98.40;;;;;;5315784;26;20297;-82
2024/04/24 02:10:13;;;;;;;3.95;0.98;;;7.60;98.40;;;;;;5317386;26;20016;-82
2024/04/24 02:12:39;;;;;;;3.72;0.88;;;7.60;98.30;;;;;;5288016;26;20076;-82
2024/04/24 02:15:05;;;;;;;2.85;0.98;;;7.60;98.40;;;;;;5299428;26;20016;-82
2024/04/24 02:17:30;;;;;;;3.35;1.00;;;7.60;98.40;;;;;;5261404;26;19997;-82
2024/04/24 02:19:56;;;;;;;2.20;0.70;;;7.70;98.40;;;;;;5351539;26;20455;-82
2024/04/24 02:22:21;;;;;;;3.42;0.77;;;7.70;98.30;;;;;;5352002;26;20031;-82
2024/04/24 02:27:31;;;;;;;4.25;0.80;;;7.60;98.30;;;;;;5298731;26;20070;-82
2024/04/24 02:29:57;;;;;;;5.05;1.00;;;7.60;98.30;;;;;;5339561;26;20012;-82
2024/04/24 02:32:23;;;;;;;2.85;1.15;;;7.60;98.30;;;;;;5328560;26;19989;-82
2024/04/24 02:34:48;;;;;;;3.22;1.05;;;7.60;98.30;;;;;;5380811;26;19989;-82
2024/04/24 02:37:14;;;;;;;2.55;0.90;;;7.60;98.30;;;;;;5340351;26;19993;-82
2024/04/24 02:39:39;;;;;;;4.60;1.05;;;7.60;98.30;;;;;;5343262;26;20008;-82
2024/04/24 02:42:05;;;;;;;5.05;1.02;;;7.50;98.20;;;;;;5354153;26;19993;-82
2024/04/24 02:44:31;;;;;;;2.22;0.88;;;7.50;98.20;;;;;;5346623;26;20025;-82
2024/04/24 02:46:56;;;;;;;2.42;0.82;;;7.50;98.30;;;;;;5285226;26;20067;-82
2024/04/24 02:49:22;;;;;;;4.30;0.90;;;7.50;98.30;;;;;;5344697;26;20324;-82
2024/04/24 02:51:51;;;;;;;4.80;0.80;;;7.50;98.30;;;;;;5308429;26;20011;-82
2024/04/24 02:54:16;;;;;;;1.70;0.70;;;7.50;98.30;;;;;;5346124;26;20001;-82
2024/04/24 02:56:42;;;;;;;3.97;1.40;;;7.50;98.30;;;;;;5317311;26;20006;-82
2024/04/24 02:59:07;;;;;;;3.63;1.23;;;7.50;98.30;;;;;;5342475;26;20044;-82
2024/04/24 03:01:33;;;;;;;2.58;1.20;;;7.50;98.40;;;;;;5330399;26;20041;-82
2024/04/24 03:04:00;;;;;;;3.85;1.38;;;7.50;98.40;;;;;;5331478;26;19997;-82
2024/04/24 03:06:26;;;;;;;4.20;1.38;;;7.40;98.40;;;;;;5351824;26;19996;-82
2024/04/24 03:08:51;;;;;;;5.18;1.85;;;7.40;98.50;;;;;;5350853;26;20014;-82
2024/04/24 03:11:17;;;;;;;4.13;1.45;;;7.40;98.50;;;;;;5322755;26;20305;-82
2024/04/24 03:13:42;;;;;;;4.60;1.80;;;7.30;98.60;;;;;;5322169;26;19996;-82
2024/04/24 03:16:08;;;;;;;5.80;1.70;;;7.20;98.60;;;;;;5343461;26;20016;-82
2024/04/24 03:18:33;;;;;;;6.07;2.03;;;7.30;98.60;;;;;;5355617;26;19998;-81
2024/04/24 03:20:59;;;;;;;6.20;2.20;;;7.20;98.60;;;;;;5320910;26;20003;-82
2024/04/24 03:23:25;;;;;;;6.30;1.80;;;7.20;98.70;;;;;;5322362;26;20010;-82
2024/04/24 03:25:50;;;;;;;4.80;1.70;;;7.10;98.70;;;;;;5315317;26;20066;-81
2024/04/24 03:28:16;;;;;;;3.40;1.58;;;7.10;98.70;;;;;;5306117;26;20005;-82
2024/04/24 03:30:41;;;;;;;6.53;2.30;;;7.10;98.70;;;;;;5287789;26;20001;-82
2024/04/24 03:33:08;;;;;;;5.35;1.90;;;7.10;98.80;;;;;;5308179;26;20014;-82
2024/04/24 03:35:34;;;;;;;3.90;1.42;;;7.00;98.80;;;;;;5316106;26;20016;-82
2024/04/24 03:38:02;;;;;;;4.80;1.67;;;7.00;98.80;;;;;;5338133;26;19997;-82
2024/04/24 03:40:28;;;;;;;3.50;1.45;;;6.90;98.80;;;;;;5317818;26;19997;-82
2024/04/24 03:42:53;;;;;;;3.58;1.50;;;6.90;98.90;;;;;;5316598;26;20067;-81
2024/04/24 03:45:19;;;;;;;2.70;1.27;;;6.90;98.90;;;;;;5338064;26;20008;-82
2024/04/24 03:47:44;;;;;;;2.95;1.38;;;6.80;98.90;;;;;;5318880;26;20314;-82
2024/04/24 03:50:10;;;;;;;2.70;1.30;;;6.80;98.90;;;;;;5338877;26;20000;-83
2024/04/24 03:52:36;;;;;;;3.67;1.35;;;6.80;99.00;;;;;;5322603;26;20005;-82
2024/04/24 03:55:01;;;;;;;3.00;1.30;;;6.70;99.00;;;;;;5351372;26;19992;-82
2024/04/24 03:57:27;;;;;;;4.05;1.27;;;6.70;99.00;;;;;;5333549;26;20000;-83
2024/04/24 03:59:52;;;;;;;4.18;1.08;;;6.70;99.00;;;;;;5367750;26;20025;-82
2024/04/24 04:02:18;;;;;;;4.80;1.10;;;6.70;99.00;;;;;;5286882;26;19989;-82
2024/04/24 04:04:44;;;;;;;2.55;1.30;;;6.70;99.00;;;;;;5393465;26;19999;-80
2024/04/24 04:07:09;;;;;;;2.95;1.02;;;6.70;99.00;;;;;;5337311;26;19997;-81
2024/04/24 04:09:35;;;;;;;3.05;1.20;;;6.60;99.00;;;;;;5317004;26;20417;-82
2024/04/24 04:12:06;;;;;;;6.82;1.50;;;6.70;99.00;;;;;;5367864;26;20353;-82
2024/04/24 04:14:32;;;;;;;;;;;6.70;99.00;;;;;;5296652;26;20003;-83
2024/04/24 04:16:58;;;;;;;5.22;1.15;;;6.70;98.90;;;;;;5310839;26;19935;-82
2024/04/24 04:19:23;;;;;;;3.13;1.10;;;6.60;98.90;;;;;;5343911;26;20449;-82
2024/04/24 04:21:51;;;;;;;4.22;1.45;;;6.60;98.90;;;;;;5315673;26;20016;-82
2024/04/24 04:24:17;;;;;;;1.92;0.80;;;6.60;98.90;;;;;;5333332;26;20000;-82
2024/04/24 04:26:42;;;;;;;4.00;1.02;;;6.60;98.90;;;;;;5350065;26;20091;-82
2024/04/24 04:29:08;;;;;;;3.33;1.05;;;6.60;98.90;;;;;;5347105;26;19993;-82
2024/04/24 04:31:33;;;;;;;2.08;1.02;;;6.50;98.90;;;;;;5348712;26;20003;-82
2024/04/24 04:33:59;;;;;;;3.72;1.05;;;6.50;99.00;;;;;;5322656;26;20001;-82
2024/04/24 04:36:25;;;;;;;4.28;0.90;;;6.50;99.00;;;;;;5318537;26;20007;-83
2024/04/24 04:38:50;;;;;;;5.18;1.35;;;6.50;99.00;;;;;;5347080;26;20339;-82
2024/04/24 04:41:16;;;;;;;3.33;1.10;;;6.50;99.00;;;;;;5349424;26;20019;-82
2024/04/24 04:43:44;;;;;;;3.88;0.95;;;6.50;99.00;;;;;;5339444;26;20001;-82
2024/04/24 04:46:10;;;;;;;3.97;1.13;;;6.50;99.10;;;;;;5320400;26;19994;-82
2024/04/24 04:48:35;;;;;;;4.65;1.00;;;6.50;99.10;;;;;;5329693;26;20004;-81
2024/04/24 04:51:02;;;;;;;2.67;1.20;;;6.50;99.10;;;;;;5347591;26;20004;-80
2024/04/24 04:53:28;;;;;;;3.65;1.05;;;6.50;99.10;;;;;;5371056;26;20420;-81
2024/04/24 04:55:53;;;;;;;5.65;1.30;;;6.50;99.20;;;;;;5334771;26;20004;-81
2024/04/24 04:58:19;;;;;;;3.28;1.30;;;6.40;99.30;;;;;;5302854;26;20019;-81
2024/04/24 05:00:44;;;;;;;4.40;1.23;;;6.50;99.30;;;;;;5363310;26;20343;-81
2024/04/24 05:03:10;;;;;;;4.32;1.50;;;6.50;99.30;;;;;;5271257;26;20015;-81
2024/04/24 05:05:35;;;;;;;3.33;1.00;;;6.50;99.30;;;;;;5376018;26;20324;-81
2024/04/24 05:08:01;;;;;;;5.13;1.38;;;6.60;99.40;;;;;;5334114;26;20015;-81
2024/04/24 05:10:27;;;;;;;3.67;0.93;;;6.50;99.40;;;;;;5350725;26;19997;-81
2024/04/24 05:12:52;;;;;;;3.70;1.17;;;6.60;99.50;;;;;;5318876;26;20050;-81
2024/04/24 05:15:18;;;;;;;3.65;0.90;;;6.60;99.50;;;;;;5329290;26;20519;-81
2024/04/24 05:17:44;;;;;;;3.13;1.00;;;6.60;99.50;;;;;;5320161;26;20009;-82
2024/04/24 05:20:09;;;;;;;3.60;1.10;;;6.60;99.50;;;;;;5319900;26;19993;-81
2024/04/24 05:22:46;;;;;;;2.47;0.98;;;6.60;99.50;;;;;;5284759;26;19989;-83
2024/04/24 05:25:16;;;;;;;2.13;1.08;;;6.70;99.50;;;;;;5340145;26;19992;-81
2024/04/24 05:30:27;;;;;;;2.45;0.90;;;6.70;99.50;;;;;;5367189;26;20103;-80
2024/04/24 05:32:52;;;;;;;4.85;1.25;;;6.70;99.50;;;;;;5262388;26;20067;-80
2024/04/24 05:35:18;;;;;;;4.22;1.20;;;6.80;99.50;;;;;;5310292;26;19997;-81
2024/04/24 05:37:44;;;;;;;2.10;1.00;;;6.90;99.50;;;;;;5342042;26;20004;-81
2024/04/24 05:40:10;;;;;;;2.38;1.00;;;6.90;99.50;;;;;;5320015;26;20008;-81
2024/04/24 05:42:35;;;;;;;4.13;1.33;;;6.90;99.50;;;;;;5281930;26;20078;-81
2024/04/24 05:45:01;;;;;;;2.88;1.00;;;7.00;99.50;;;;;;5333087;26;20444;-81
2024/04/24 05:47:27;;;;;;;3.90;1.27;;;7.00;99.50;;;;;;5350977;26;20130;-81
2024/04/24 05:49:53;;;;;;;2.28;1.10;;;7.00;99.50;;;;;;5294688;26;20004;-81
2024/04/24 05:52:19;;;;;;;4.82;1.23;;;7.00;99.40;;;;;;5318277;26;20000;-81
2024/04/24 05:54:45;;;;;;;5.72;1.55;;;7.10;99.40;;;;;;5327691;26;20005;-81
2024/04/24 05:57:10;;;;;;;3.15;1.13;;;7.10;99.40;;;;;;5317602;26;19997;-83
2024/04/24 05:59:36;;;;;;;5.57;1.10;;;7.10;99.40;;;;;;5345461;26;20000;-81
2024/04/24 06:02:02;;;;;;;3.63;1.00;;;7.20;99.40;;;;;;5352098;26;20316;-81
2024/04/24 06:04:30;;;;;;;7.03;1.77;;;7.20;99.40;;;;;;5320196;26;20021;-81
2024/04/24 06:06:56;;;;;;;4.88;1.45;;;7.20;99.40;;;;;;5290104;26;19997;-81
2024/04/24 06:09:24;;;;;;;2.90;1.30;;;7.30;99.40;;;;;;5304165;26;20074;-81
2024/04/24 06:11:50;;;;;;;3.95;1.23;;;7.30;99.40;;;;;;5317254;26;20004;-81
2024/04/24 06:14:15;;;;;;;3.25;1.23;;;7.30;99.40;;;;;;5320832;26;20000;-81
2024/04/24 06:16:41;;;;;;;4.97;1.40;;;7.30;99.40;;;;;;5316209;26;20003;-81
2024/04/24 06:19:06;;;;;;;3.67;1.02;;;7.40;99.40;;;;;;5289310;26;20432;-81
2024/04/24 06:21:32;;;;;;;3.78;1.10;;;7.30;99.30;;;;;;5283887;26;20009;-81
2024/04/24 06:23:58;;;;;;;2.72;1.02;;;7.40;99.30;;;;;;5321265;26;20464;-82
2024/04/24 06:26:24;;;;;;;4.85;1.35;;;7.40;99.30;;;;;;5260533;26;19996;-81
2024/04/24 06:28:49;;;;;;;4.22;1.00;;;7.40;99.30;;;;;;5272817;26;20004;-81
2024/04/24 06:31:15;;;;;;;4.10;1.40;;;7.40;99.30;;;;;;5336507;26;20011;-81
2024/04/24 06:33:41;;;;;;;3.08;1.10;;;7.40;99.30;;;;;;5346321;26;20001;-81
2024/04/24 06:36:07;;;;;;;3.58;1.27;;;7.50;99.30;;;;;;5310063;26;20333;-81
2024/04/24 06:38:32;;;;;;;4.20;1.40;;;7.50;99.20;;;;;;5361281;26;20000;-81
2024/04/24 06:40:58;;;;;;;5.90;1.52;;;7.50;99.20;;;;;;5309629;26;20004;-81
2024/04/24 06:43:24;;;;;;;3.50;1.42;;;7.40;99.20;;;;;;5343757;26;20004;-81
2024/04/24 06:45:49;;;;;;;4.07;1.40;;;7.50;99.20;;;;;;5332044;26;20003;-81
2024/04/24 06:48:17;;;;;;;5.03;1.30;;;7.50;99.20;;;;;;5341007;26;19996;-82
2024/04/24 06:50:43;;;;;;;6.03;1.58;;;7.50;99.20;;;;;;5284639;26;19985;-81
2024/04/24 06:53:08;;;;;;;8.35;1.70;;;7.60;99.30;;;;;;5332572;26;20344;-82
2024/04/24 06:55:36;;;;;;;4.13;1.23;;;7.70;99.20;;;;;;5265021;26;20000;-81
2024/04/24 06:58:02;;;;;;;3.22;1.10;;;7.70;99.20;;;;;;5318320;26;19993;-81
2024/04/24 07:00:30;;;;;;;4.25;1.20;;;7.80;99.20;;;;;;5347465;26;20011;-80
2024/04/24 07:02:56;;;;;;;5.32;1.60;;;7.80;99.20;;;;;;5342498;26;20001;-80
2024/04/24 07:05:21;;;;;;;5.40;1.40;;;7.90;99.20;;;;;;5325334;26;20413;-81
2024/04/24 07:07:47;;;;;;;4.93;1.45;;;7.90;99.30;;;;;;5351688;26;20077;-81
2024/04/24 07:10:13;;;;;;;8.57;1.83;;;8.00;99.30;;;;;;5293341;26;20015;-81
2024/04/24 07:12:38;;;;;;;5.60;1.35;;;8.10;99.20;;;;;;5382706;26;19996;-81
2024/04/24 07:15:04;;;;;;;6.68;1.70;;;8.20;99.10;;;;;;5351642;26;20077;-81
2024/04/24 07:17:30;;;;;;;5.03;1.45;;;8.20;99.10;;;;;;5350588;26;19996;-81
2024/04/24 07:19:55;;;;;;;5.85;1.88;;;8.30;99.10;;;;;;5381663;26;20000;-81
2024/04/24 07:22:21;;;;;;;6.63;1.40;;;8.40;99.10;;;;;;5292242;26;20001;-81
2024/04/24 07:24:46;;;;;;;3.97;1.30;;;8.50;99.10;;;;;;5316322;26;20074;-82
2024/04/24 07:27:12;;;;;;;5.03;1.52;;;8.50;99.00;;;;;;5288124;26;20012;-81
2024/04/24 07:29:38;;;;;;;5.50;1.80;;;8.50;99.00;;;;;;5261365;26;20005;-81
2024/04/24 07:32:04;;;;;;;8.45;1.80;;;8.50;98.90;;;;;;5260100;26;20066;-81
2024/04/24 07:34:29;;;;;;;6.03;1.65;;;8.50;98.90;;;;;;5336406;26;20065;-81
2024/04/24 07:36:55;;;;;;;5.40;1.20;;;8.50;98.80;;;;;;5296118;26;20001;-82
2024/04/24 07:39:21;;;;;;;4.97;1.65;;;8.60;98.80;;;;;;5343298;26;19997;-81
2024/04/24 07:41:47;;;;;;;4.53;1.45;;;8.70;98.80;;;;;;5289313;26;20008;-81
2024/04/24 07:44:13;;;;;;;5.55;1.45;;;8.70;98.80;;;;;;5350673;26;20015;-81
2024/04/24 07:46:38;;;;;;;6.22;1.55;;;8.80;98.80;;;;;;5328736;26;20021;-81
2024/04/24 07:49:04;;;;;;;7.65;1.88;;;8.80;98.70;;;;;;5316687;26;20008;-81
2024/04/24 07:51:30;;;;;;;7.03;1.88;;;8.90;98.70;;;;;;5331992;26;19997;-81
2024/04/24 07:53:55;;;;;;;5.40;1.55;;;9.00;98.70;;;;;;5316395;26;19997;-81
2024/04/24 07:56:21;;;;;;;9.18;1.88;;;9.00;98.60;;;;;;5328096;26;20011;-81
2024/04/24 07:58:46;;;;;;;6.85;1.30;;;9.00;98.60;;;;;;5381409;26;20000;-81
2024/04/24 08:01:12;;;;;;;5.32;1.80;;;9.10;98.60;;;;;;5344737;26;20008;-81
2024/04/24 08:03:38;;;;;;;6.22;1.80;;;9.00;98.50;;;;;;5316286;26;20011;-82
2024/04/24 08:06:05;;;;;;;7.78;2.05;;;9.10;98.40;;;;;;5345603;26;20074;-81
2024/04/24 08:08:31;;;;;;;7.03;1.95;;;9.00;98.40;;;;;;5288283;26;20074;-81
2024/04/24 08:10:56;;;;;;;10.48;2.35;;;9.00;98.30;;;;;;5332769;26;20005;-82
2024/04/24 08:13:22;;;;;;;9.02;2.78;;;8.90;98.10;;;;;;5367379;26;20004;-81
2024/04/24 08:15:48;;;;;;;5.18;1.98;;;8.70;98.20;;;;;;5393019;26;20001;-83
2024/04/24 08:18:13;;;;;;;6.70;1.42;;;8.50;98.50;;;;;;5371634;26;19996;-83
2024/04/24 08:20:39;;;;;;;7.18;1.58;;;8.40;98.70;;;;;;5354333;26;20000;-81
2024/04/24 08:23:07;;;;;;;7.85;1.92;;;8.40;98.90;;;;;;5365725;26;20362;-82
2024/04/24 08:25:32;;;;;;;6.28;1.80;;;8.30;99.10;;;;;;5325379;26;19996;-83
2024/04/24 08:27:58;;;;;;;4.40;1.50;;;8.20;99.30;;;;;;5318991;26;20429;-83
2024/04/24 08:30:24;;;;;;;5.40;1.20;;;8.20;99.40;;;;;;5321738;26;19996;-84
2024/04/24 08:32:50;;;;;;;3.05;1.05;;;8.20;99.60;;;;;;5324240;26;20051;-83
2024/04/24 08:35:15;;;;;;;2.03;0.93;;;8.10;99.70;;;;;;5384090;26;20000;-83
2024/04/24 08:37:41;;;;;;;2.30;0.75;;;8.10;99.80;;;;;;5318551;26;20009;-85
2024/04/24 08:40:07;;;;;;;2.50;0.63;;;8.00;99.60;;;;;;5290359;26;20377;-84
2024/04/24 08:42:33;;;;;;;1.15;0.45;;;7.80;99.60;;;;;;5328774;26;20506;-83
2024/04/24 08:44:59;;;;;;;0.45;0.32;;;7.60;99.70;;;;;;5384231;26;20032;-85
2024/04/24 08:47:26;;;;;;;1.05;0.40;;;7.60;99.80;;;;;;5384077;26;19988;-85
2024/04/24 08:49:53;;;;;;;1.20;0.52;;;7.40;99.80;;;;;;5364716;26;20005;-84
2024/04/24 08:52:24;;;;;;;0.82;0.35;;;7.40;99.90;;;;;;5349299;26;20466;-84
2024/04/24 08:54:56;;;;;;;0.52;0.40;;;7.30;99.90;;;;;;5356602;26;20320;-84
2024/04/24 08:57:24;;;;;;;1.92;0.77;;;7.30;99.90;;;;;;5349801;26;20001;-83
2024/04/24 08:59:53;;;;;;;1.65;0.60;;;7.30;99.90;;;;;;5290795;26;20000;-82
2024/04/24 09:02:21;;;;;;;2.55;0.60;;;7.30;99.90;;;;;;5318577;26;20001;-82
2024/04/24 09:04:48;;;;;;;2.50;0.50;;;7.30;99.90;;;;;;5384237;26;20003;-83
2024/04/24 09:07:20;;;;;;;1.33;0.60;;;7.40;99.90;;;;;;5350644;26;20000;-82
2024/04/24 09:09:46;;;;;;;1.95;0.57;;;7.40;99.90;;;;;;5352999;26;19992;-83
2024/04/24 09:12:15;;;;;;;2.78;0.52;;;7.40;99.90;;;;;;5339372;26;20001;-82
2024/04/24 09:14:41;;;;;;;1.52;0.50;;;7.40;99.90;;;;;;5371053;26;19996;-82
2024/04/24 09:17:06;;;;;;;0.98;0.73;;;7.50;99.90;;;;;;5318728;26;20004;-82
2024/04/24 09:19:32;;;;;;;0.60;0.50;;;7.50;99.90;;;;;;5361942;26;20179;-83
2024/04/24 09:22:00;;;;;;;3.40;0.60;;;7.50;99.90;;;;;;5289454;26;20005;-82
2024/04/24 09:24:25;;;;;;;1.08;0.30;;;7.40;99.90;;;;;;5361300;26;20009;-82
2024/04/24 09:26:51;;;;;;;5.43;0.68;;;7.30;99.90;;;;;;5290414;26;20328;-82
2024/04/24 09:29:17;;;;;;;1.90;0.63;;;7.20;99.90;;;;;;5318964;26;20001;-83
2024/04/24 09:31:42;;;;;;;1.75;0.50;;;7.10;99.90;;;;;;5296471;26;20001;-82
2024/04/24 09:34:10;;;;;;;1.48;0.40;;;7.10;99.90;;;;;;5318905;26;20000;-82
2024/04/24 09:36:37;;;;;;;2.20;0.68;;;7.10;99.90;;;;;;5348142;26;20004;-82
2024/04/24 09:39:13;;;;;;;2.13;0.60;;;7.10;99.90;;;;;;5398246;26;19996;-82
2024/04/24 09:41:48;;;;;;;1.83;0.55;;;7.10;99.90;;;;;;5387488;26;20049;-81
2024/04/24 09:44:14;;;;;;;1.80;0.43;;;7.20;99.90;;;;;;5373901;26;20041;-81
2024/04/24 09:46:52;;;;;;;0.93;0.60;;;7.30;99.90;;;;;;5326436;26;20000;-82
2024/04/24 09:49:21;;;;;;;1.40;0.65;;;7.40;99.90;;;;;;5319477;26;20001;-82
2024/04/24 09:51:49;;;;;;;1.23;0.50;;;7.50;99.90;;;;;;5375116;26;20020;-81
2024/04/24 09:54:14;;;;;;;1.33;0.50;;;7.50;99.90;;;;;;5323459;26;20024;-82
2024/04/24 09:56:49;;;;;;;0.82;0.50;;;7.60;99.90;;;;;;5323667;26;20069;-82
2024/04/24 09:59:17;;;;;;;2.08;0.60;;;7.70;99.90;;;;;;5352667;26;20008;-82
2024/04/24 10:01:48;;;;;;;1.27;0.38;;;7.90;99.90;;;;;;5331427;26;20005;-82
2024/04/24 10:04:17;;;;;;;1.70;0.50;;;8.00;99.90;;;;;;5328129;26;20004;-82
2024/04/24 10:06:46;;;;;;;1.45;0.50;;;8.20;99.90;;;;;;5352151;26;20427;-81
2024/04/24 10:09:19;;;;;;;1.13;0.47;;;8.30;99.90;;;;;;5383016;26;20069;-81
2024/04/24 10:11:53;;;;;;;2.60;0.60;;;8.50;99.90;;;;;;5350018;26;20005;-81
2024/04/24 10:14:23;;;;;;;2.42;0.60;;;8.70;99.90;;;;;;5382375;26;20008;-82
2024/04/24 10:16:50;;;;;;;3.28;1.20;;;8.80;99.90;;;;;;5323685;26;20008;-81
2024/04/24 10:19:20;;;;;;;1.15;0.50;;;9.00;99.90;;;;;;5317876;26;20001;-81
2024/04/24 10:21:47;;;;;;;1.30;0.77;;;9.10;99.90;;;;;;5336877;26;20011;-81
2024/04/24 10:24:13;;;;;;;1.00;0.57;;;9.20;99.90;;;;;;5291852;26;20008;-82
2024/04/24 10:26:41;;;;;;;1.65;0.70;;;9.30;99.90;;;;;;5352150;26;20004;-82
2024/04/24 10:29:07;;;;;;;2.05;0.85;;;9.40;99.90;;;;;;5352606;26;20011;-82
2024/04/24 10:31:32;;;;;;;1.80;0.85;;;9.40;99.90;;;;;;5323728;26;19996;-82
2024/04/24 10:34:00;;;;;;;1.38;0.63;;;9.40;99.90;;;;;;5350567;26;20015;-82
2024/04/24 10:36:26;;;;;;;5.18;1.33;;;9.40;99.90;;;;;;5350530;26;20000;-82
2024/04/24 10:38:57;;;;;;;4.05;0.77;;;9.30;99.90;;;;;;5367036;26;19992;-82
2024/04/24 10:41:25;;;;;;;2.55;0.70;;;9.10;99.90;;;;;;5334146;26;19993;-82
2024/04/24 10:43:50;;;;;;;2.38;0.98;;;8.70;99.90;;;;;;5361334;26;20016;-83
2024/04/24 10:46:18;;;;;;;1.52;0.55;;;8.60;99.90;;;;;;5332492;26;20000;-82
2024/04/24 10:48:56;;;;;;;1.80;0.43;;;8.50;99.90;;;;;;5308860;26;20325;-83
2024/04/24 10:51:32;;;;;;;2.05;0.40;;;8.40;99.90;;;;;;5365951;26;20040;-83
2024/04/24 10:54:06;;;;;;;1.38;0.40;;;8.40;99.90;;;;;;5325797;26;20000;-83
2024/04/24 10:56:33;;;;;;;2.60;0.40;;;8.50;99.90;;;;;;5323077;26;19996;-82
2024/04/24 10:59:01;;;;;;;0.88;0.45;;;8.60;99.90;;;;;;5308714;26;20012;-82
2024/04/24 11:01:31;;;;;;;1.60;0.60;;;8.60;99.90;;;;;;5277250;26;20440;-82
2024/04/24 11:03:59;;;;;;;1.65;0.65;;;8.70;99.90;;;;;;5355233;26;19996;-82
2024/04/24 11:06:24;;;;;;;2.17;0.90;;;8.70;99.90;;;;;;5378582;26;20016;-82
2024/04/24 11:08:51;;;;;;;4.88;0.95;;;8.70;99.90;;;;;;5316054;26;20005;-83
2024/04/24 11:11:21;;;;;;;2.90;1.10;;;8.80;99.90;;;;;;5332445;26;20013;-83
2024/04/24 11:14:01;;;;;;;2.63;0.88;;;8.80;99.90;;;;;;5303763;26;20044;-82
2024/04/24 11:16:27;;;;;;;4.63;1.52;;;8.90;99.90;;;;;;5369094;26;20000;-82
2024/04/24 11:18:53;;;;;;;3.30;1.17;;;8.90;99.90;;;;;;5362308;26;20036;-82
2024/04/24 11:21:26;;;;;;;5.68;1.20;;;9.00;99.90;;;;;;5358047;26;20383;-81
2024/04/24 11:23:52;;;;;;;4.88;1.77;;;9.00;99.90;;;;;;5315333;26;20317;-82
2024/04/24 11:26:29;;;;;;;5.25;1.13;;;9.20;99.90;;;;;;5324407;26;20012;-82
2024/04/24 11:29:02;;;;;;;3.72;1.50;;;9.30;99.90;;;;;;5329044;26;20011;-82
2024/04/24 11:31:35;;;;;;;5.75;1.30;;;9.40;99.90;;;;;;5343280;26;20016;-82
2024/04/24 11:34:02;;;;;;;6.28;1.75;;;9.50;99.90;;;;;;5381600;26;20032;-80
2024/04/24 11:36:29;;;;;;;4.22;1.13;;;9.50;99.90;;;;;;5339225;26;20005;-81
2024/04/24 11:38:55;;;;;;;6.35;1.52;;;9.60;99.90;;;;;;5287692;26;20021;-82
2024/04/24 11:41:21;;;;;;;3.67;1.10;;;9.70;99.90;;;;;;5316639;26;20008;-81
2024/04/24 11:43:48;;;;;;;3.25;1.40;;;9.70;99.90;;;;;;5288229;26;20429;-82
2024/04/24 11:46:13;;;;;;;7.28;1.75;;;9.80;99.90;;;;;;5342465;26;20445;-81
2024/04/24 11:48:39;;;;;;;3.40;1.17;;;9.80;99.90;;;;;;5279735;26;20021;-81
2024/04/24 11:51:06;;;;;;;3.90;1.20;;;9.80;99.90;;;;;;5342610;26;20004;-81
2024/04/24 11:53:31;;;;;;;5.93;1.70;;;9.90;99.90;;;;;;5354342;26;20004;-81
2024/04/24 11:55:57;;;;;;;4.38;1.20;;;9.90;99.90;;;;;;5321093;26;20369;-81
2024/04/24 11:58:24;;;;;;;4.30;1.73;;;10.00;99.90;;;;;;5265347;26;20417;-81
2024/04/24 12:00:54;;;;;;;5.03;1.25;;;10.00;99.90;;;;;;5360291;26;20009;-81
2024/04/24 12:03:20;;;;;;;3.08;0.98;;;10.10;99.90;;;;;;5386192;26;19992;-82
2024/04/24 12:05:45;;;;;;;4.68;1.20;;;10.10;99.90;;;;;;5319112;26;20040;-82
2024/04/24 12:08:12;;;;;;;4.80;1.55;;;10.20;99.90;;;;;;5263250;26;19997;-81
2024/04/24 12:10:38;;;;;;;5.03;1.25;;;10.20;99.90;;;;;;5350170;26;20001;-83
2024/04/24 12:13:04;;;;;;;5.05;1.60;;;10.10;99.90;;;;;;5352031;26;20000;-81
2024/04/24 12:15:29;;;;;;;7.20;1.75;;;10.10;99.90;;;;;;5306778;26;20420;-82
2024/04/24 12:17:55;;;;;;;7.68;1.92;;;10.10;99.90;;;;;;5342839;26;20008;-83
2024/04/24 12:20:21;;;;;;;6.65;1.73;;;10.10;99.90;;;;;;5385671;26;20007;-82
2024/04/24 12:22:46;;;;;;;7.53;1.75;;;10.10;99.90;;;;;;5384847;26;19996;-82
2024/04/24 12:25:12;;;;;;;5.25;1.45;;;10.10;99.90;;;;;;5325432;26;20070;-82
2024/04/24 12:27:38;;;;;;;6.22;1.60;;;10.20;99.90;;;;;;5387024;26;20319;-82
2024/04/24 12:30:05;;;;;;;5.43;1.40;;;10.20;99.90;;;;;;5322362;26;20000;-83
2024/04/24 12:32:30;;;;;;;6.25;1.40;;;10.30;99.90;;;;;;5306933;26;20045;-82
2024/04/24 12:34:57;;;;;;;4.10;1.27;;;10.40;99.90;;;;;;5336814;26;20005;-84
2024/04/24 12:37:26;;;;;;;4.38;1.08;;;10.50;99.90;;;;;;5320069;26;19996;-82
2024/04/24 12:39:52;;;;;;;2.60;0.90;;;10.50;99.90;;;;;;5366008;26;19997;-82
2024/04/24 12:42:20;;;;;;;4.57;1.00;;;10.50;99.90;;;;;;5272199;26;20510;-81
2024/04/24 12:44:46;;;;;;;2.70;1.00;;;10.50;99.50;;;;;;5332327;26;20004;-82
2024/04/24 12:47:12;;;;;;;3.55;0.98;;;10.50;99.10;;;;;;5296292;26;20000;-82
2024/04/24 12:49:38;;;;;;;5.10;1.13;;;10.60;99.20;;;;;;5325710;26;20304;-83
2024/04/24 12:52:04;;;;;;;3.15;1.35;;;10.60;99.10;;;;;;5301625;26;20000;-82
2024/04/24 12:54:30;;;;;;;3.70;1.10;;;10.70;99.00;;;;;;5334208;26;20332;-83
2024/04/24 12:56:56;;;;;;;3.38;1.08;;;10.70;99.00;;;;;;5348080;26;19997;-82